Olmida — ZCNU4 — position and weather

sailwx.info

Track history (hours):
 
Tides and Currents Weather Stations Pressure Air Temp Water Temp Dewpoint Dewpoint Depression Visibility Wind Speed Wind Dir Waves Ship Positions

Olmida

Last reported at 2015-Jul-05 20:15 UTC. Time now 2015-Jul-05 23:19 UTC.
Position N 39°32' E 002°22'.

; draft 3.2 m.

Type: Pleasure craft. MMSI: 319196000.

Date/timePositionNaut miles runAvg speedWind from/ knotsBaromVisibWave heightAir tempDewpointWater temp
2015-Jul-05 20:15N 39°32' E 002°22'0 0.0
2015-Jul-05 19:21N 39°32' E 002°22'0 0.1
2015-Jul-05 18:12N 39°32' E 002°22'  
2015-Jul-03 12:33N 39°27' E 002°30'4 3.9
2015-Jul-03 11:31N 39°31' E 002°33'0 0.0
2015-Jul-03 10:28N 39°31' E 002°33'3 3.5
2015-Jul-03 09:33N 39°32' E 002°37'2 1.8
2015-Jul-03 08:33N 39°33' E 002°38'0 0.0
2015-Jul-03 07:33N 39°33' E 002°38'0 0.0
2015-Jul-03 06:33N 39°33' E 002°38'0 0.0
2015-Jul-03 05:33N 39°33' E 002°38'0 0.0
2015-Jul-03 04:33N 39°33' E 002°38'0 0.0
2015-Jul-03 03:33N 39°33' E 002°38'0 0.0
2015-Jul-03 02:32N 39°33' E 002°38'0 0.0
2015-Jul-03 01:33N 39°33' E 002°38'0 0.0
2015-Jul-03 00:32N 39°33' E 002°38'0 0.0
2015-Jul-02 23:32N 39°33' E 002°38'0 0.0
2015-Jul-02 22:32N 39°33' E 002°38'0 0.0
2015-Jul-02 21:32N 39°33' E 002°38'0 0.0
2015-Jul-02 20:32N 39°33' E 002°38'0 0.0
2015-Jul-02 19:32N 39°33' E 002°38'0 0.0
2015-Jul-02 18:32N 39°33' E 002°38'0 0.0
2015-Jul-02 17:32N 39°33' E 002°38'0 0.0
2015-Jul-02 16:32N 39°33' E 002°38'0 0.0
2015-Jul-02 15:32N 39°33' E 002°38'0 0.0
2015-Jul-02 14:29N 39°33' E 002°38'0 0.0
2015-Jul-02 13:32N 39°33' E 002°38'0 0.0
2015-Jul-02 12:31N 39°33' E 002°38'0 0.0
2015-Jul-02 11:31N 39°33' E 002°38'0 0.0
2015-Jul-02 10:31N 39°33' E 002°38'0 0.0
2015-Jul-02 09:31N 39°33' E 002°38'0 0.0
2015-Jul-02 08:31N 39°33' E 002°38'0 0.0
2015-Jul-02 07:31N 39°33' E 002°38'0 0.0
2015-Jul-02 06:31N 39°33' E 002°38'0 0.0
2015-Jul-02 05:31N 39°33' E 002°38'0 0.0
2015-Jul-02 04:31N 39°33' E 002°38'0 0.0
2015-Jul-02 03:31N 39°33' E 002°38'0 0.0
2015-Jul-02 02:31N 39°33' E 002°38'0 0.0
2015-Jul-02 01:31N 39°33' E 002°38'0 0.0
2015-Jul-02 00:31N 39°33' E 002°38'0 0.0
2015-Jul-01 23:31N 39°33' E 002°38'0 0.0
2015-Jul-01 22:33N 39°33' E 002°38'0 0.0
2015-Jul-01 21:33N 39°33' E 002°38'0 0.0
2015-Jul-01 20:33N 39°33' E 002°38'0 0.0
2015-Jul-01 19:33N 39°33' E 002°38'0 0.0
2015-Jul-01 18:33N 39°33' E 002°38'0 0.0
2015-Jul-01 17:30N 39°33' E 002°38'0 0.0
2015-Jul-01 16:33N 39°33' E 002°38'0 0.0
2015-Jul-01 15:33N 39°33' E 002°38'0 0.0
2015-Jul-01 14:33N 39°33' E 002°38'0 0.0
2015-Jul-01 13:32N 39°33' E 002°38'0 0.0
2015-Jul-01 12:32N 39°33' E 002°38'0 0.0
2015-Jul-01 11:32N 39°33' E 002°38'0 0.0
2015-Jul-01 10:28N 39°33' E 002°38'0 0.0
2015-Jul-01 09:31N 39°33' E 002°38'0 0.0
2015-Jul-01 08:31N 39°33' E 002°38'0 0.0
2015-Jul-01 07:31N 39°33' E 002°38'0 0.0
2015-Jul-01 06:31N 39°33' E 002°38'0 0.0
2015-Jul-01 05:31N 39°33' E 002°38'0 0.0
2015-Jul-01 04:31N 39°33' E 002°38'0 0.0
2015-Jul-01 03:31N 39°33' E 002°38'0 0.0
2015-Jul-01 02:31N 39°33' E 002°38'0 0.0
2015-Jul-01 01:31N 39°33' E 002°38'0 0.0
2015-Jun-30 23:31N 39°33' E 002°38'0 0.0
2015-Jun-30 22:31N 39°33' E 002°38'0 0.0
2015-Jun-30 21:31N 39°33' E 002°38'0 0.0
2015-Jun-30 20:31N 39°33' E 002°38'0 0.0
2015-Jun-30 19:34N 39°33' E 002°38'0 0.0
2015-Jun-30 18:33N 39°33' E 002°38'0 0.0
2015-Jun-30 17:33N 39°33' E 002°38'0 0.0
2015-Jun-30 16:30N 39°33' E 002°38'0 0.0
2015-Jun-30 15:33N 39°33' E 002°38'0 0.0
2015-Jun-30 14:33N 39°33' E 002°38'0 0.0
2015-Jun-30 13:33N 39°33' E 002°38'1 1.0
2015-Jun-30 12:33N 39°33' E 002°39'1110.8
2015-Jun-30 11:33N 39°29' E 002°25'1010.3
2015-Jun-30 10:33N 39°39' E 002°25'1313.2
2015-Jun-30 09:34N 39°49' E 002°36'1413.5
2015-Jun-30 08:33N 39°59' E 002°48'1313.0
2015-Jun-30 07:33N 40°09' E 002°60'1312.7
2015-Jun-30 06:33N 40°18' E 003°11'1312.6
2015-Jun-30 05:33N 40°28' E 003°22'5413.2
2015-Jun-30 01:27N 41°07' E 004°10'6513.2
2015-Jun-29 20:33N 41°55' E 005°08'1313.0
2015-Jun-29 19:33N 42°05' E 005°20'1413.3
2015-Jun-29 18:31N 42°14' E 005°33'1313.5
2015-Jun-29 17:32N 42°24' E 005°45'1713.1
2015-Jun-29 16:14N 42°37' E 006°01'2313.2
2015-Jun-29 14:31N 42°54' E 006°22'1313.2
2015-Jun-29 13:33N 43°03' E 006°34'1813.0
2015-Jun-29 12:08N 43°16' E 006°51'813.3
2015-Jun-29 11:33N 43°22' E 006°58'1413.7
2015-Jun-29 10:33N 43°32' E 007°11'1313.5
2015-Jun-29 09:33N 43°42' E 007°23'3 2.6
2015-Jun-29 08:29N 43°44' E 007°26'0 0.0
2015-Jun-28 15:06N 43°44' E 007°26'0 0.0
2015-Jun-28 10:18N 43°44' E 007°26'0 0.0
2015-Jun-27 19:26N 43°44' E 007°26'0 0.0
2015-Jun-27 18:29N 43°44' E 007°26'0 0.0
2015-Jun-27 17:29N 43°44' E 007°26'0 0.0
2015-Jun-27 15:19N 43°44' E 007°26'0 0.0
2015-Jun-27 14:31N 43°44' E 007°26'0 0.0
2015-Jun-27 13:19N 43°44' E 007°26'0 0.0
2015-Jun-27 12:25N 43°44' E 007°26'0 0.0
2015-Jun-27 09:31N 43°44' E 007°26'0 0.0
2015-Jun-27 07:31N 43°44' E 007°26'0 0.0
2015-Jun-26 17:24N 43°44' E 007°26'0 0.0
2015-Jun-26 16:24N 43°44' E 007°26'  
Track history (hours):
 
Tides and Currents Weather Stations Pressure Air Temp Water Temp Dewpoint Dewpoint Depression Visibility Wind Speed Wind Dir Waves Ship Positions

Olmida

Last reported at 2015-Jul-05 20:15 UTC. Time now 2015-Jul-05 23:19 UTC.
Position N 39°32' E 002°22'.

; draft 3.2 m.

Type: Pleasure craft. MMSI: 319196000.

Date/timePositionNaut miles runAvg speedWind from/ knotsBaromVisibWave heightAir tempDewpointWater temp
2015-Jul-05 20:15N 39°32' E 002°22'0 0.0
2015-Jul-05 19:21N 39°32' E 002°22'0 0.1
2015-Jul-05 18:12N 39°32' E 002°22'  
2015-Jul-03 12:33N 39°27' E 002°30'4 3.9
2015-Jul-03 11:31N 39°31' E 002°33'0 0.0
2015-Jul-03 10:28N 39°31' E 002°33'3 3.5
2015-Jul-03 09:33N 39°32' E 002°37'2 1.8
2015-Jul-03 08:33N 39°33' E 002°38'0 0.0
2015-Jul-03 07:33N 39°33' E 002°38'0 0.0
2015-Jul-03 06:33N 39°33' E 002°38'0 0.0
2015-Jul-03 05:33N 39°33' E 002°38'0 0.0
2015-Jul-03 04:33N 39°33' E 002°38'0 0.0
2015-Jul-03 03:33N 39°33' E 002°38'0 0.0
2015-Jul-03 02:32N 39°33' E 002°38'0 0.0
2015-Jul-03 01:33N 39°33' E 002°38'0 0.0
2015-Jul-03 00:32N 39°33' E 002°38'0 0.0
2015-Jul-02 23:32N 39°33' E 002°38'0 0.0
2015-Jul-02 22:32N 39°33' E 002°38'0 0.0
2015-Jul-02 21:32N 39°33' E 002°38'0 0.0
2015-Jul-02 20:32N 39°33' E 002°38'0 0.0
2015-Jul-02 19:32N 39°33' E 002°38'0 0.0
2015-Jul-02 18:32N 39°33' E 002°38'0 0.0
2015-Jul-02 17:32N 39°33' E 002°38'0 0.0
2015-Jul-02 16:32N 39°33' E 002°38'0 0.0
2015-Jul-02 15:32N 39°33' E 002°38'0 0.0
2015-Jul-02 14:29N 39°33' E 002°38'0 0.0
2015-Jul-02 13:32N 39°33' E 002°38'0 0.0
2015-Jul-02 12:31N 39°33' E 002°38'0 0.0
2015-Jul-02 11:31N 39°33' E 002°38'0 0.0
2015-Jul-02 10:31N 39°33' E 002°38'0 0.0
2015-Jul-02 09:31N 39°33' E 002°38'0 0.0
2015-Jul-02 08:31N 39°33' E 002°38'0 0.0
2015-Jul-02 07:31N 39°33' E 002°38'0 0.0
2015-Jul-02 06:31N 39°33' E 002°38'0 0.0
2015-Jul-02 05:31N 39°33' E 002°38'0 0.0
2015-Jul-02 04:31N 39°33' E 002°38'0 0.0
2015-Jul-02 03:31N 39°33' E 002°38'0 0.0
2015-Jul-02 02:31N 39°33' E 002°38'0 0.0
2015-Jul-02 01:31N 39°33' E 002°38'0 0.0
2015-Jul-02 00:31N 39°33' E 002°38'0 0.0
2015-Jul-01 23:31N 39°33' E 002°38'0 0.0
2015-Jul-01 22:33N 39°33' E 002°38'0 0.0
2015-Jul-01 21:33N 39°33' E 002°38'0 0.0
2015-Jul-01 20:33N 39°33' E 002°38'0 0.0
2015-Jul-01 19:33N 39°33' E 002°38'0 0.0
2015-Jul-01 18:33N 39°33' E 002°38'0 0.0
2015-Jul-01 17:30N 39°33' E 002°38'0 0.0
2015-Jul-01 16:33N 39°33' E 002°38'0 0.0
2015-Jul-01 15:33N 39°33' E 002°38'0 0.0
2015-Jul-01 14:33N 39°33' E 002°38'0 0.0
2015-Jul-01 13:32N 39°33' E 002°38'0 0.0
2015-Jul-01 12:32N 39°33' E 002°38'0 0.0
2015-Jul-01 11:32N 39°33' E 002°38'0 0.0
2015-Jul-01 10:28N 39°33' E 002°38'0 0.0
2015-Jul-01 09:31N 39°33' E 002°38'0 0.0
2015-Jul-01 08:31N 39°33' E 002°38'0 0.0
2015-Jul-01 07:31N 39°33' E 002°38'0 0.0
2015-Jul-01 06:31N 39°33' E 002°38'0 0.0
2015-Jul-01 05:31N 39°33' E 002°38'0 0.0
2015-Jul-01 04:31N 39°33' E 002°38'0 0.0
2015-Jul-01 03:31N 39°33' E 002°38'0 0.0
2015-Jul-01 02:31N 39°33' E 002°38'0 0.0
2015-Jul-01 01:31N 39°33' E 002°38'0 0.0
2015-Jun-30 23:31N 39°33' E 002°38'0 0.0
2015-Jun-30 22:31N 39°33' E 002°38'0 0.0
2015-Jun-30 21:31N 39°33' E 002°38'0 0.0
2015-Jun-30 20:31N 39°33' E 002°38'0 0.0
2015-Jun-30 19:34N 39°33' E 002°38'0 0.0
2015-Jun-30 18:33N 39°33' E 002°38'0 0.0
2015-Jun-30 17:33N 39°33' E 002°38'0 0.0
2015-Jun-30 16:30N 39°33' E 002°38'0 0.0
2015-Jun-30 15:33N 39°33' E 002°38'0 0.0
2015-Jun-30 14:33N 39°33' E 002°38'0 0.0
2015-Jun-30 13:33N 39°33' E 002°38'1 1.0
2015-Jun-30 12:33N 39°33' E 002°39'1110.8
2015-Jun-30 11:33N 39°29' E 002°25'1010.3
2015-Jun-30 10:33N 39°39' E 002°25'1313.2
2015-Jun-30 09:34N 39°49' E 002°36'1413.5
2015-Jun-30 08:33N 39°59' E 002°48'1313.0
2015-Jun-30 07:33N 40°09' E 002°60'1312.7
2015-Jun-30 06:33N 40°18' E 003°11'1312.6
2015-Jun-30 05:33N 40°28' E 003°22'5413.2
2015-Jun-30 01:27N 41°07' E 004°10'6513.2
2015-Jun-29 20:33N 41°55' E 005°08'1313.0
2015-Jun-29 19:33N 42°05' E 005°20'1413.3
2015-Jun-29 18:31N 42°14' E 005°33'1313.5
2015-Jun-29 17:32N 42°24' E 005°45'1713.1
2015-Jun-29 16:14N 42°37' E 006°01'2313.2
2015-Jun-29 14:31N 42°54' E 006°22'1313.2
2015-Jun-29 13:33N 43°03' E 006°34'1813.0
2015-Jun-29 12:08N 43°16' E 006°51'813.3
2015-Jun-29 11:33N 43°22' E 006°58'1413.7
2015-Jun-29 10:33N 43°32' E 007°11'1313.5
2015-Jun-29 09:33N 43°42' E 007°23'3 2.6
2015-Jun-29 08:29N 43°44' E 007°26'0 0.0
2015-Jun-28 15:06N 43°44' E 007°26'0 0.0
2015-Jun-28 10:18N 43°44' E 007°26'0 0.0
2015-Jun-27 19:26N 43°44' E 007°26'0 0.0
2015-Jun-27 18:29N 43°44' E 007°26'0 0.0
2015-Jun-27 17:29N 43°44' E 007°26'0 0.0
2015-Jun-27 15:19N 43°44' E 007°26'0 0.0
2015-Jun-27 14:31N 43°44' E 007°26'0 0.0
2015-Jun-27 13:19N 43°44' E 007°26'0 0.0
2015-Jun-27 12:25N 43°44' E 007°26'0 0.0
2015-Jun-27 09:31N 43°44' E 007°26'0 0.0
2015-Jun-27 07:31N 43°44' E 007°26'0 0.0
2015-Jun-26 17:24N 43°44' E 007°26'0 0.0
2015-Jun-26 16:24N 43°44' E 007°26'  

Dump ship's entire track history